Time;durP1;ratioP1;P1;durP2;ratioP2;P2;SDS_P1;SDS_P2;PMS_P1;PMS_P2;Temp;Humidity;BMP_temperature;BMP_pressure;BME280_temperature;BME280_humidity;BME280_pressure;Samples;Min_cycle;Max_cycle;Signal;HPM_P1;HPM_P2
2022/03/14 00:00:07;;;;;;;1.25;0.90;;;11.90;72.70;;;;;;5026023;28;20026;-67
2022/03/14 00:02:34;;;;;;;1.50;0.70;;;11.90;72.90;;;;;;5026160;28;20029;-66
2022/03/14 00:05:00;;;;;;;1.35;0.95;;;11.90;72.80;;;;;;5028927;28;20107;-66
2022/03/14 00:07:26;;;;;;;1.98;0.90;;;11.90;72.80;;;;;;5028697;28;20548;-66
2022/03/14 00:09:52;;;;;;;2.80;0.90;;;11.90;72.90;;;;;;5026234;28;20037;-67
2022/03/14 00:12:20;;;;;;;1.20;0.80;;;11.90;73.20;;;;;;5025912;28;20029;-66
2022/03/14 00:14:46;;;;;;;1.50;0.80;;;11.90;73.50;;;;;;5025879;28;20074;-66
2022/03/14 00:17:11;;;;;;;1.85;0.90;;;11.80;73.80;;;;;;5028564;28;20021;-66
2022/03/14 00:19:38;;;;;;;1.48;0.85;;;11.80;74.70;;;;;;5025843;28;20060;-66
2022/03/14 00:22:04;;;;;;;2.15;1.08;;;11.70;75.70;;;;;;5028581;28;20041;-66
2022/03/14 00:24:29;;;;;;;1.73;1.10;;;11.70;76.60;;;;;;5025796;28;20049;-66
2022/03/14 00:26:55;;;;;;;1.23;0.82;;;11.60;76.80;;;;;;5023241;28;20477;-66
2022/03/14 00:29:21;;;;;;;1.95;0.93;;;11.50;77.40;;;;;;5028353;28;20370;-66
2022/03/14 00:31:47;;;;;;;1.40;0.95;;;11.50;78.00;;;;;;5025404;28;20052;-66
2022/03/14 00:34:15;;;;;;;2.10;1.08;;;11.40;78.30;;;;;;5028417;28;20024;-66
2022/03/14 00:36:43;;;;;;;2.47;1.50;;;11.40;78.90;;;;;;5025953;28;20485;-66
2022/03/14 00:39:09;;;;;;;1.83;1.10;;;11.30;79.30;;;;;;5028347;28;20033;-66
2022/03/14 00:41:35;;;;;;;1.70;1.05;;;11.30;79.90;;;;;;5028214;28;20028;-66
2022/03/14 00:44:00;;;;;;;1.73;1.00;;;11.30;80.50;;;;;;5025788;28;20040;-66
2022/03/14 00:46:26;;;;;;;1.60;1.00;;;11.20;81.00;;;;;;5028109;28;20477;-66
2022/03/14 00:48:52;;;;;;;1.70;1.10;;;11.20;81.60;;;;;;5028253;28;20100;-66
2022/03/14 00:51:17;;;;;;;2.65;1.20;;;11.10;82.20;;;;;;5022665;28;20025;-66
2022/03/14 00:53:43;;;;;;;1.80;1.10;;;11.10;82.60;;;;;;5028190;28;20056;-66
2022/03/14 00:56:08;;;;;;;1.95;1.08;;;11.00;82.70;;;;;;5028097;28;20020;-66
2022/03/14 00:58:34;;;;;;;1.98;1.13;;;11.00;82.80;;;;;;5028082;28;20485;-65
2022/03/14 01:01:01;;;;;;;2.03;1.35;;;11.00;83.00;;;;;;5027900;28;20021;-66
2022/03/14 01:03:27;;;;;;;1.70;1.25;;;11.00;83.30;;;;;;5027936;28;20108;-66
2022/03/14 01:05:52;;;;;;;2.05;1.38;;;11.00;83.50;;;;;;5010142;28;20108;-66
2022/03/14 01:08:18;;;;;;;2.28;1.40;;;11.00;83.50;;;;;;5027902;28;20084;-66
2022/03/14 01:10:43;;;;;;;1.60;1.20;;;11.00;83.50;;;;;;5025236;28;20547;-66
2022/03/14 01:13:10;;;;;;;1.60;1.10;;;11.00;83.50;;;;;;5027983;28;20021;-66
2022/03/14 01:15:36;;;;;;;1.60;1.13;;;11.00;83.60;;;;;;5027874;28;20021;-66
2022/03/14 01:18:02;;;;;;;2.60;1.40;;;11.00;83.70;;;;;;5025289;28;20389;-66
2022/03/14 01:20:27;;;;;;;2.63;1.42;;;11.00;83.80;;;;;;5024890;28;20030;-66
2022/03/14 01:22:56;;;;;;;2.42;1.58;;;10.90;84.00;;;;;;5027762;28;20032;-66
2022/03/14 01:25:23;;;;;;;2.33;1.38;;;10.90;84.00;;;;;;5027810;28;20017;-66
2022/03/14 01:27:50;;;;;;;2.67;1.45;;;10.90;84.30;;;;;;5027515;28;20148;-66
2022/03/14 01:30:16;;;;;;;2.22;1.50;;;10.90;84.20;;;;;;5023534;28;20104;-67
2022/03/14 01:32:42;;;;;;;2.20;1.60;;;10.90;84.40;;;;;;5026791;28;20021;-66
2022/03/14 01:35:07;;;;;;;2.50;1.85;;;10.90;84.80;;;;;;5024904;28;20036;-66
2022/03/14 01:37:33;;;;;;;2.58;1.63;;;10.80;85.00;;;;;;5029561;28;20087;-66
2022/03/14 01:39:59;;;;;;;2.95;1.50;;;10.80;85.10;;;;;;5031651;28;20068;-66
2022/03/14 01:42:24;;;;;;;1.95;1.48;;;10.80;85.00;;;;;;5031316;28;20033;-66
2022/03/14 01:44:50;;;;;;;1.92;1.50;;;10.80;85.00;;;;;;5031401;28;20034;-66
2022/03/14 01:47:16;;;;;;;1.98;1.42;;;10.80;85.10;;;;;;5028766;28;20397;-66
2022/03/14 01:49:43;;;;;;;2.20;1.33;;;10.80;85.20;;;;;;5031436;28;20033;-66
2022/03/14 01:52:09;;;;;;;2.30;1.50;;;10.80;85.30;;;;;;5028390;28;20423;-66
2022/03/14 01:54:35;;;;;;;2.63;1.92;;;10.80;85.60;;;;;;5031243;28;20045;-66
2022/03/14 01:57:00;;;;;;;3.85;1.95;;;10.70;85.90;;;;;;5030800;28;20451;-66
2022/03/14 01:59:29;;;;;;;3.47;2.00;;;10.70;85.90;;;;;;5032542;28;20108;-66
2022/03/14 02:01:56;;;;;;;3.03;1.73;;;10.70;86.10;;;;;;5029781;28;20100;-66
2022/03/14 02:04:22;;;;;;;3.33;2.10;;;10.70;86.20;;;;;;5030969;28;20495;-65
2022/03/14 02:06:49;;;;;;;2.13;1.38;;;10.70;86.20;;;;;;5030899;28;20041;-65
2022/03/14 02:09:15;;;;;;;3.22;1.65;;;10.70;86.30;;;;;;5020627;28;20037;-66
2022/03/14 02:11:56;;;;;;;2.05;1.70;;;10.70;86.30;;;;;;5026212;28;20021;-66
2022/03/14 02:14:22;;;;;;;2.03;1.50;;;10.80;86.20;;;;;;4998395;28;20367;-65
2022/03/14 02:16:48;;;;;;;1.88;1.45;;;10.80;86.30;;;;;;5031215;28;20096;-66
2022/03/14 02:19:14;;;;;;;1.80;1.50;;;10.80;86.20;;;;;;5028146;28;20023;-66
2022/03/14 02:21:40;;;;;;;2.78;1.77;;;10.80;86.10;;;;;;5030791;28;20021;-66
2022/03/14 02:24:06;;;;;;;2.88;2.15;;;10.80;86.20;;;;;;5027755;28;20529;-66
2022/03/14 02:26:39;;;;;;;2.83;2.25;;;10.80;86.30;;;;;;5030837;28;20021;-66
2022/03/14 02:29:09;;;;;;;3.30;2.10;;;10.70;86.30;;;;;;5030368;28;20037;-66
2022/03/14 02:31:36;;;;;;;2.95;2.00;;;10.70;86.50;;;;;;5012780;28;20032;-66
2022/03/14 02:34:03;;;;;;;3.40;2.10;;;10.70;86.60;;;;;;5012790;28;20112;-66
2022/03/14 02:36:29;;;;;;;2.70;1.73;;;10.70;86.80;;;;;;5030295;28;20033;-66
2022/03/14 02:38:54;;;;;;;2.92;2.13;;;10.70;86.80;;;;;;5012580;28;20481;-66
2022/03/14 02:41:23;;;;;;;2.60;1.80;;;10.70;86.80;;;;;;5012451;28;20029;-65
2022/03/14 02:43:48;;;;;;;2.70;2.15;;;10.70;86.70;;;;;;5030612;28;20029;-66
2022/03/14 02:46:15;;;;;;;2.53;1.92;;;10.70;86.80;;;;;;5030308;28;20025;-66
2022/03/14 02:48:41;;;;;;;3.42;2.28;;;10.70;86.90;;;;;;5030198;28;20036;-66
2022/03/14 02:51:07;;;;;;;2.75;1.98;;;10.70;87.10;;;;;;5030159;28;20392;-66
2022/03/14 02:53:32;;;;;;;2.90;2.05;;;10.60;87.20;;;;;;5029876;28;20056;-66
2022/03/14 02:55:58;;;;;;;2.85;2.05;;;10.60;87.40;;;;;;5030301;28;20017;-66
2022/03/14 02:58:25;;;;;;;4.15;2.10;;;10.60;87.60;;;;;;5027289;28;20032;-66
2022/03/14 03:00:52;;;;;;;2.25;1.80;;;10.60;87.60;;;;;;5012510;28;20508;-66
2022/03/14 03:03:18;;;;;;;2.92;2.08;;;10.60;87.50;;;;;;5029997;28;20033;-66
2022/03/14 03:05:44;;;;;;;2.65;2.10;;;10.60;87.60;;;;;;5007938;28;20083;-66
2022/03/14 03:08:11;;;;;;;3.17;2.20;;;10.60;87.50;;;;;;5027077;28;20120;-66
2022/03/14 03:10:37;;;;;;;2.83;2.17;;;10.60;87.40;;;;;;5027170;28;20588;-66
2022/03/14 03:13:03;;;;;;;3.08;2.17;;;10.70;87.20;;;;;;5027546;28;20030;-66
2022/03/14 03:15:29;;;;;;;2.85;2.00;;;10.70;87.00;;;;;;5011652;28;20072;-66
2022/03/14 03:17:54;;;;;;;2.90;2.05;;;10.70;86.80;;;;;;5030220;28;20033;-66
2022/03/14 03:20:20;;;;;;;3.95;1.92;;;10.70;86.90;;;;;;5029776;28;20014;-66
2022/03/14 03:22:45;;;;;;;2.83;2.10;;;10.70;86.80;;;;;;5029405;28;20025;-66
2022/03/14 03:25:12;;;;;;;2.95;2.00;;;10.70;86.80;;;;;;5026987;28;20021;-66
2022/03/14 03:27:37;;;;;;;2.88;2.20;;;10.70;87.00;;;;;;5029569;28;20520;-66
2022/03/14 03:30:04;;;;;;;3.33;2.33;;;10.70;87.30;;;;;;5009007;28;20477;-66
2022/03/14 03:32:30;;;;;;;3.75;2.38;;;10.70;87.30;;;;;;5029288;28;20033;-66
2022/03/14 03:34:55;;;;;;;2.97;2.38;;;10.70;87.40;;;;;;5011741;28;20494;-66
2022/03/14 03:37:21;;;;;;;3.30;2.67;;;10.70;87.30;;;;;;5029552;28;20036;-66
2022/03/14 03:39:47;;;;;;;3.17;2.88;;;10.70;87.40;;;;;;5029395;28;20087;-66
2022/03/14 03:42:12;;;;;;;3.03;2.40;;;10.70;87.90;;;;;;5030483;28;20030;-66
2022/03/14 03:44:38;;;;;;;2.92;2.50;;;10.70;87.50;;;;;;5029939;28;20025;-67
2022/03/14 03:47:04;;;;;;;3.80;2.97;;;10.70;87.50;;;;;;5029308;28;20113;-66
2022/03/14 03:49:31;;;;;;;3.47;2.50;;;10.70;87.40;;;;;;5028899;28;20033;-66
2022/03/14 03:51:56;;;;;;;2.85;2.45;;;10.70;87.60;;;;;;5013284;28;20017;-66
2022/03/14 03:54:22;;;;;;;3.67;2.55;;;10.70;87.60;;;;;;5028981;28;20053;-66
2022/03/14 03:56:48;;;;;;;2.97;2.67;;;10.70;87.70;;;;;;5028955;28;20083;-66
2022/03/14 03:59:14;;;;;;;3.20;2.90;;;10.70;88.30;;;;;;5025940;28;20481;-66
2022/03/14 04:01:41;;;;;;;3.40;2.60;;;10.70;87.70;;;;;;5028973;28;20036;-66
2022/03/14 04:04:07;;;;;;;4.20;2.95;;;10.60;87.90;;;;;;5010769;28;20080;-66
2022/03/14 04:06:35;;;;;;;4.40;2.67;;;10.60;88.00;;;;;;5026128;28;20430;-66
2022/03/14 04:09:01;;;;;;;3.63;2.67;;;10.60;88.20;;;;;;5008801;28;20021;-66
2022/03/14 04:11:26;;;;;;;2.95;2.13;;;10.60;88.00;;;;;;5025894;28;20033;-66
2022/03/14 04:13:53;;;;;;;3.33;2.33;;;10.60;87.70;;;;;;5029123;28;20445;-66
2022/03/14 04:16:21;;;;;;;2.92;2.22;;;10.60;87.60;;;;;;5028824;28;20021;-66
2022/03/14 04:18:47;;;;;;;3.50;2.58;;;10.60;87.50;;;;;;5025613;28;20049;-66
2022/03/14 04:21:14;;;;;;;3.25;2.58;;;10.60;87.60;;;;;;5010800;28;20486;-66
2022/03/14 04:23:39;;;;;;;2.58;2.00;;;10.60;87.60;;;;;;5028731;28;20032;-66
2022/03/14 04:26:05;;;;;;;3.05;2.40;;;10.60;87.50;;;;;;5023258;28;20022;-66
2022/03/14 04:28:31;;;;;;;3.85;2.70;;;10.60;87.50;;;;;;5028083;28;20022;-66
2022/03/14 04:30:57;;;;;;;2.90;2.22;;;10.60;87.40;;;;;;5028462;28;20477;-66
2022/03/14 04:33:23;;;;;;;3.67;2.80;;;10.50;87.60;;;;;;5028188;28;20108;-66
2022/03/14 04:35:49;;;;;;;3.58;2.58;;;10.50;87.70;;;;;;5023386;28;20166;-66
2022/03/14 04:38:15;;;;;;;4.47;3.33;;;10.50;87.70;;;;;;5028229;28;20124;-66
2022/03/14 04:40:41;;;;;;;4.15;3.05;;;10.50;87.80;;;;;;5028538;28;20029;-66
2022/03/14 04:43:08;;;;;;;3.97;3.40;;;10.50;88.00;;;;;;5010044;28;20095;-66
2022/03/14 04:45:36;;;;;;;4.38;3.72;;;10.50;88.20;;;;;;5010378;28;20483;-66
2022/03/14 04:48:03;;;;;;;4.40;4.00;;;10.50;88.40;;;;;;5027991;28;20021;-66
2022/03/14 04:50:28;;;;;;;4.75;4.28;;;10.50;88.70;;;;;;5027937;28;20432;-66
2022/03/14 04:52:54;;;;;;;5.95;4.90;;;10.40;88.90;;;;;;5010492;28;20059;-66
2022/03/14 04:55:20;;;;;;;6.68;6.03;;;10.40;89.20;;;;;;5007787;28;20560;-66
2022/03/14 04:57:45;;;;;;;6.75;6.15;;;10.40;89.60;;;;;;5025305;28;20049;-66
2022/03/14 05:00:12;;;;;;;6.97;6.30;;;10.40;89.90;;;;;;5025169;28;20031;-66
2022/03/14 05:02:37;;;;;;;7.43;6.68;;;10.40;90.00;;;;;;5028067;28;20112;-66
2022/03/14 05:05:04;;;;;;;8.18;6.97;;;10.30;90.10;;;;;;5027986;28;20097;-66
2022/03/14 05:07:30;;;;;;;6.88;6.28;;;10.30;90.20;;;;;;5007095;28;20036;-67
2022/03/14 05:09:56;;;;;;;6.35;5.70;;;10.30;90.30;;;;;;5010149;28;20498;-66
2022/03/14 05:12:21;;;;;;;7.60;6.75;;;10.30;90.30;;;;;;5029466;28;20060;-66
2022/03/14 05:14:50;;;;;;;6.72;6.13;;;10.30;90.40;;;;;;5029589;28;20033;-66
2022/03/14 05:17:17;;;;;;;7.27;6.13;;;10.30;90.50;;;;;;5029286;28;20028;-66
2022/03/14 05:19:43;;;;;;;6.88;6.20;;;10.30;90.60;;;;;;5031933;28;20485;-66
2022/03/14 05:22:08;;;;;;;6.40;5.80;;;10.20;90.70;;;;;;5019837;28;20052;-66
2022/03/14 05:24:34;;;;;;;6.70;6.00;;;10.20;90.80;;;;;;5030961;28;20029;-66
2022/03/14 05:26:59;;;;;;;6.20;5.60;;;10.20;90.80;;;;;;5030241;28;20033;-66
2022/03/14 05:29:25;;;;;;;7.57;6.57;;;10.20;90.90;;;;;;5031697;28;20030;-67
2022/03/14 05:31:50;;;;;;;6.72;6.13;;;10.20;91.00;;;;;;5026123;28;20553;-66
2022/03/14 05:34:16;;;;;;;7.03;6.32;;;10.20;91.10;;;;;;5031638;28;20026;-66
2022/03/14 05:36:41;;;;;;;7.28;6.57;;;10.20;91.20;;;;;;5029229;28;20025;-66
2022/03/14 05:39:07;;;;;;;6.60;6.00;;;10.10;91.20;;;;;;5028722;28;20567;-66
2022/03/14 05:41:33;;;;;;;6.97;6.07;;;10.20;91.20;;;;;;5028782;28;20029;-67
2022/03/14 05:43:58;;;;;;;7.20;6.43;;;10.20;91.20;;;;;;5031673;28;20436;-67
2022/03/14 05:46:24;;;;;;;7.15;6.07;;;10.20;91.10;;;;;;5031310;28;20067;-67
2022/03/14 05:48:50;;;;;;;8.65;6.28;;;10.20;91.10;;;;;;5031228;28;20025;-65
2022/03/14 05:51:15;;;;;;;7.40;6.70;;;10.20;91.10;;;;;;5028662;28;20085;-66
2022/03/14 05:53:41;;;;;;;6.18;5.57;;;10.20;91.00;;;;;;5013257;28;20099;-65
2022/03/14 05:56:07;;;;;;;8.30;5.57;;;10.20;91.00;;;;;;5028686;28;20402;-66
2022/03/14 05:58:33;;;;;;;7.10;5.72;;;10.20;91.00;;;;;;5027864;28;20365;-66
2022/03/14 06:00:58;;;;;;;7.35;5.80;;;10.20;91.00;;;;;;5029821;28;20790;-66
2022/03/14 06:03:24;;;;;;;7.93;6.07;;;10.20;91.00;;;;;;5031223;28;20057;-66
2022/03/14 06:05:50;;;;;;;7.20;6.03;;;10.20;91.10;;;;;;5031085;28;20068;-66
2022/03/14 06:08:17;;;;;;;6.93;6.20;;;10.10;91.20;;;;;;5031041;28;20032;-66
2022/03/14 06:10:45;;;;;;;8.52;7.00;;;10.10;91.30;;;;;;5031149;28;20040;-66
2022/03/14 06:13:11;;;;;;;8.05;6.38;;;10.10;91.50;;;;;;5031249;28;20039;-67
2022/03/14 06:15:37;;;;;;;8.32;7.22;;;10.10;91.60;;;;;;5030932;28;20552;-67
2022/03/14 06:18:02;;;;;;;8.95;7.50;;;10.00;91.80;;;;;;5028309;28;20462;-66
2022/03/14 06:20:28;;;;;;;8.15;7.32;;;10.00;92.00;;;;;;5030547;28;20032;-66
2022/03/14 06:22:53;;;;;;;8.98;8.07;;;10.00;92.10;;;;;;5030451;28;20021;-66
2022/03/14 06:25:19;;;;;;;8.63;7.68;;;10.00;92.30;;;;;;5030989;28;20029;-67
2022/03/14 06:27:45;;;;;;;9.45;8.00;;;9.90;92.40;;;;;;5031029;28;20036;-66
2022/03/14 06:30:11;;;;;;;9.80;8.45;;;9.90;92.60;;;;;;5012473;28;20481;-67
2022/03/14 06:32:39;;;;;;;9.50;8.50;;;9.90;92.80;;;;;;5027914;28;20021;-67
2022/03/14 06:35:07;;;;;;;10.23;8.20;;;9.90;92.90;;;;;;5012601;28;20028;-66
2022/03/14 06:37:32;;;;;;;9.05;7.95;;;9.90;93.00;;;;;;5030351;28;20029;-67
2022/03/14 06:39:58;;;;;;;9.63;8.30;;;9.80;93.10;;;;;;5029173;28;20082;-66
2022/03/14 06:42:23;;;;;;;9.52;8.52;;;9.90;93.30;;;;;;5029257;28;20461;-67
2022/03/14 06:44:50;;;;;;;10.02;8.98;;;9.80;93.30;;;;;;5027807;28;20021;-66
2022/03/14 06:47:19;;;;;;;10.82;9.40;;;9.80;93.40;;;;;;5030331;28;20040;-66
2022/03/14 06:49:45;;;;;;;10.48;8.15;;;9.80;93.40;;;;;;5030502;28;20045;-67
2022/03/14 06:52:12;;;;;;;9.75;8.75;;;9.80;93.60;;;;;;5030424;28;20067;-67
2022/03/14 06:54:38;;;;;;;10.32;8.80;;;9.80;93.50;;;;;;5030061;28;20086;-66
2022/03/14 06:57:07;;;;;;;13.55;10.43;;;9.80;93.60;;;;;;5030317;28;20029;-66
2022/03/14 06:59:33;;;;;;;12.48;9.98;;;9.80;93.70;;;;;;5030090;28;20033;-66
2022/03/14 07:01:59;;;;;;;12.13;9.63;;;9.80;93.80;;;;;;5030196;28;20056;-67
2022/03/14 07:04:25;;;;;;;10.63;8.88;;;9.80;93.80;;;;;;5029618;28;20060;-66
2022/03/14 07:06:51;;;;;;;11.40;9.38;;;9.90;93.80;;;;;;5030029;28;20053;-66
2022/03/14 07:09:16;;;;;;;14.38;10.45;;;9.90;93.80;;;;;;5029719;28;20021;-66
2022/03/14 07:11:42;;;;;;;15.60;11.50;;;9.90;93.80;;;;;;5029735;28;20022;-66
2022/03/14 07:14:08;;;;;;;13.32;11.93;;;9.90;93.80;;;;;;5029821;28;20518;-66
2022/03/14 07:16:34;;;;;;;11.32;10.10;;;9.90;93.80;;;;;;5027210;28;20036;-66
2022/03/14 07:18:59;;;;;;;11.00;9.88;;;9.90;93.80;;;;;;5029696;28;20013;-66
2022/03/14 07:21:28;;;;;;;13.73;11.25;;;9.90;93.70;;;;;;5029814;28;20030;-66
2022/03/14 07:23:57;;;;;;;12.98;11.68;;;10.00;93.70;;;;;;5027131;28;20362;-66
2022/03/14 07:26:23;;;;;;;15.07;12.57;;;10.00;93.70;;;;;;5009189;28;20033;-67
2022/03/14 07:28:49;;;;;;;14.60;13.05;;;10.00;93.80;;;;;;5031419;28;20508;-66
2022/03/14 07:31:24;;;;;;;15.77;14.07;;;10.00;93.80;;;;;;5025860;28;20055;-66
2022/03/14 07:33:50;;;;;;;14.40;11.95;;;10.00;93.90;;;;;;5028909;28;20425;-66
2022/03/14 07:36:16;;;;;;;19.35;14.75;;;10.10;94.00;;;;;;5028501;28;20041;-66
2022/03/14 07:38:41;;;;;;;16.75;14.23;;;10.10;94.00;;;;;;5030811;28;20060;-66
2022/03/14 07:41:10;;;;;;;17.48;14.15;;;10.10;94.00;;;;;;5030772;28;20102;-66
2022/03/14 07:43:39;;;;;;;16.90;14.55;;;10.10;94.00;;;;;;5025469;28;20056;-66
2022/03/14 07:46:05;;;;;;;16.25;13.35;;;10.10;94.10;;;;;;5028222;28;20489;-66
2022/03/14 07:48:30;;;;;;;17.35;13.88;;;10.20;94.10;;;;;;5010835;28;20057;-66
2022/03/14 07:50:56;;;;;;;18.90;15.07;;;10.20;94.10;;;;;;5030244;28;20053;-66
2022/03/14 07:53:22;;;;;;;16.08;14.38;;;10.20;94.10;;;;;;5031236;28;20046;-65
2022/03/14 07:55:48;;;;;;;17.15;15.35;;;10.30;94.10;;;;;;5031655;28;20036;-65
2022/03/14 07:58:14;;;;;;;18.52;15.88;;;10.30;94.10;;;;;;5032910;28;20108;-65
2022/03/14 08:00:39;;;;;;;18.85;16.42;;;10.30;94.00;;;;;;5032799;28;20049;-66
2022/03/14 08:03:05;;;;;;;18.02;15.63;;;10.40;93.90;;;;;;5032639;28;20031;-66
2022/03/14 08:05:30;;;;;;;17.48;15.43;;;10.40;93.90;;;;;;5032453;28;20030;-66
2022/03/14 08:07:57;;;;;;;19.48;14.30;;;10.40;93.80;;;;;;5032457;28;20416;-65
2022/03/14 08:10:23;;;;;;;15.82;14.02;;;10.40;93.80;;;;;;5032310;28;20037;-65
2022/03/14 08:12:55;;;;;;;16.13;14.43;;;10.50;93.70;;;;;;5032350;28;20021;-65
2022/03/14 08:15:25;;;;;;;18.73;15.30;;;10.60;93.70;;;;;;5014540;28;20021;-65
2022/03/14 08:17:52;;;;;;;17.15;15.02;;;10.60;93.60;;;;;;5032586;28;20412;-66
2022/03/14 08:20:19;;;;;;;16.67;13.65;;;10.60;93.50;;;;;;5032439;28;20025;-66
2022/03/14 08:22:45;;;;;;;16.00;13.23;;;10.70;93.50;;;;;;5032668;28;20185;-66
2022/03/14 08:25:11;;;;;;;15.65;13.93;;;10.70;93.40;;;;;;5032314;28;20052;-66
2022/03/14 08:27:37;;;;;;;17.77;14.65;;;10.70;93.20;;;;;;5014028;28;20065;-66
2022/03/14 08:30:04;;;;;;;17.35;15.50;;;10.70;93.10;;;;;;5032247;28;20061;-66
2022/03/14 08:32:31;;;;;;;18.63;14.95;;;10.70;93.00;;;;;;5032373;28;20543;-66
2022/03/14 08:34:57;;;;;;;18.65;15.68;;;10.70;93.00;;;;;;5032255;28;20037;-65
2022/03/14 08:37:23;;;;;;;17.63;15.40;;;10.70;92.90;;;;;;5032426;28;20021;-65
2022/03/14 08:39:48;;;;;;;17.45;14.85;;;10.70;92.90;;;;;;5032197;28;20036;-65
2022/03/14 08:42:15;;;;;;;20.42;16.20;;;10.80;92.90;;;;;;5023053;28;20029;-65
2022/03/14 08:44:40;;;;;;;18.08;15.77;;;10.80;92.80;;;;;;5025514;28;20025;-66
2022/03/14 08:47:06;;;;;;;20.73;16.15;;;10.80;92.70;;;;;;5031630;28;20026;-66
2022/03/14 08:49:32;;;;;;;21.20;16.73;;;10.80;92.70;;;;;;5031770;28;20087;-65
2022/03/14 08:51:58;;;;;;;20.05;17.05;;;10.80;92.60;;;;;;5031951;28;20021;-66
2022/03/14 08:54:23;;;;;;;18.02;15.43;;;10.80;92.60;;;;;;5031824;28;20052;-66
2022/03/14 08:56:49;;;;;;;22.27;17.42;;;10.80;92.50;;;;;;5032160;28;20104;-66
2022/03/14 08:59:15;;;;;;;20.27;17.13;;;10.90;92.50;;;;;;5031890;28;20034;-66
2022/03/14 09:01:41;;;;;;;18.83;16.80;;;10.90;92.40;;;;;;5031733;28;20044;-66
2022/03/14 09:04:07;;;;;;;18.27;15.52;;;10.80;92.30;;;;;;5031548;28;20132;-66
2022/03/14 09:06:35;;;;;;;19.83;15.80;;;10.90;92.20;;;;;;5031742;28;20069;-66
2022/03/14 09:09:01;;;;;;;18.13;16.23;;;10.80;92.20;;;;;;5031845;28;20021;-66
2022/03/14 09:11:27;;;;;;;17.92;15.43;;;10.90;92.10;;;;;;5031445;28;20108;-65
2022/03/14 09:13:53;;;;;;;23.17;17.05;;;10.80;92.10;;;;;;5031897;28;20109;-66
2022/03/14 09:16:19;;;;;;;20.48;16.65;;;10.80;92.10;;;;;;5029820;28;20033;-66
2022/03/14 09:18:45;;;;;;;20.92;16.85;;;10.80;92.10;;;;;;5030369;28;20028;-66
2022/03/14 09:21:14;;;;;;;19.15;15.23;;;10.90;92.00;;;;;;5031746;28;20108;-66
2022/03/14 09:23:41;;;;;;;19.08;15.75;;;10.90;91.90;;;;;;5031631;28;20030;-65
2022/03/14 09:26:07;;;;;;;18.40;15.65;;;11.00;91.90;;;;;;5031583;28;20040;-65
2022/03/14 09:28:34;;;;;;;20.05;15.75;;;11.00;91.80;;;;;;5030229;28;20492;-66
2022/03/14 09:30:59;;;;;;;19.50;15.65;;;11.00;91.70;;;;;;5031790;28;20547;-66
2022/03/14 09:33:25;;;;;;;19.60;15.65;;;11.10;91.60;;;;;;5031709;28;20041;-66
2022/03/14 09:35:50;;;;;;;19.40;16.13;;;11.20;91.50;;;;;;5032096;28;20033;-65
2022/03/14 09:38:17;;;;;;;17.90;15.57;;;11.20;91.40;;;;;;5031471;28;20053;-65
2022/03/14 09:40:45;;;;;;;16.67;14.90;;;11.20;91.30;;;;;;5031546;28;20040;-65
2022/03/14 09:43:15;;;;;;;19.73;16.23;;;11.20;91.30;;;;;;5031638;28;20025;-65
2022/03/14 09:45:44;;;;;;;19.30;15.70;;;11.20;91.30;;;;;;5030401;28;20044;-65
2022/03/14 09:48:12;;;;;;;17.80;15.50;;;11.20;91.30;;;;;;5029377;28;20027;-66
2022/03/14 09:50:40;;;;;;;18.92;16.17;;;11.20;91.40;;;;;;5030070;28;20018;-66
2022/03/14 09:53:13;;;;;;;18.45;15.50;;;11.20;91.30;;;;;;5027577;28;20349;-65
2022/03/14 09:55:43;;;;;;;16.08;14.38;;;11.30;91.30;;;;;;5028507;28;20033;-66
2022/03/14 09:58:14;;;;;;;20.38;14.63;;;11.20;91.20;;;;;;5032211;28;20026;-66
2022/03/14 10:00:41;;;;;;;18.27;15.38;;;11.20;91.20;;;;;;5034800;28;20078;-66
2022/03/14 10:03:06;;;;;;;19.45;14.48;;;11.30;91.20;;;;;;5034673;28;20422;-65
2022/03/14 10:05:33;;;;;;;22.50;16.38;;;11.30;91.20;;;;;;5034829;28;20030;-66
2022/03/14 10:07:59;;;;;;;17.98;15.68;;;11.30;91.10;;;;;;5032619;28;20481;-66
2022/03/14 10:10:25;;;;;;;18.60;14.73;;;11.30;91.10;;;;;;5032963;28;20028;-66
2022/03/14 10:12:53;;;;;;;19.42;15.25;;;11.30;91.00;;;;;;5032795;28;20447;-66
2022/03/14 10:15:21;;;;;;;21.10;15.80;;;11.30;90.90;;;;;;5032643;28;20358;-66
2022/03/14 10:17:46;;;;;;;18.65;15.60;;;11.30;90.90;;;;;;5001617;28;20385;-66
2022/03/14 10:20:15;;;;;;;20.33;15.23;;;11.30;90.90;;;;;;5021005;28;20481;-66
2022/03/14 10:22:42;;;;;;;19.75;14.68;;;11.40;90.90;;;;;;5033625;28;20048;-66
2022/03/14 10:25:09;;;;;;;20.33;14.07;;;11.40;90.80;;;;;;5034369;28;20393;-66
2022/03/14 10:27:37;;;;;;;18.73;14.57;;;11.40;90.80;;;;;;5033093;28;20123;-66
2022/03/14 10:30:05;;;;;;;17.60;13.85;;;11.50;90.70;;;;;;5034621;28;20032;-66
2022/03/14 10:32:31;;;;;;;19.88;14.80;;;11.50;90.60;;;;;;5034697;28;20071;-66
2022/03/14 10:35:05;;;;;;;17.20;14.30;;;11.60;90.50;;;;;;5034541;28;20381;-65
2022/03/14 10:37:32;;;;;;;15.60;13.93;;;11.70;90.20;;;;;;5034383;28;20021;-66
2022/03/14 10:40:07;;;;;;;18.88;13.70;;;11.90;90.10;;;;;;5034177;28;20090;-66
2022/03/14 10:42:43;;;;;;;17.15;13.45;;;12.30;89.70;;;;;;5033939;28;20033;-65
2022/03/14 10:45:17;;;;;;;13.85;10.90;;;12.80;88.70;;;;;;5034168;28;20030;-66
2022/03/14 10:47:54;;;;;;;13.77;12.32;;;13.50;87.60;;;;;;5016330;28;20034;-66
2022/03/14 10:50:37;;;;;;;12.18;10.13;;;14.10;84.90;;;;;;5034079;28;20025;-66
2022/03/14 10:53:18;;;;;;;13.65;11.20;;;14.90;83.40;;;;;;5034063;28;20022;-65
2022/03/14 10:55:48;;;;;;;12.35;10.93;;;14.90;81.20;;;;;;5034193;28;20109;-66
2022/03/14 10:58:23;;;;;;;11.85;10.35;;;14.80;80.30;;;;;;5033728;28;20053;-66
2022/03/14 11:00:58;;;;;;;16.63;11.68;;;14.40;80.20;;;;;;5033858;28;20082;-67
2022/03/14 11:03:29;;;;;;;14.15;12.02;;;14.10;80.60;;;;;;5027677;28;20042;-67
2022/03/14 11:06:05;;;;;;;14.05;11.98;;;13.80;80.40;;;;;;5015984;28;20060;-66
2022/03/14 11:08:42;;;;;;;17.40;12.98;;;13.60;80.50;;;;;;5033927;28;20021;-66
2022/03/14 11:11:14;;;;;;;15.40;13.75;;;13.40;80.30;;;;;;5033829;28;20096;-66
2022/03/14 11:13:42;;;;;;;15.07;13.43;;;13.30;80.70;;;;;;5033765;28;20028;-66
2022/03/14 11:16:34;;;;;;;17.75;13.82;;;13.30;80.70;;;;;;5033914;28;20025;-66
2022/03/14 11:19:00;;;;;;;15.98;12.95;;;13.30;80.60;;;;;;5016047;28;20117;-66
2022/03/14 11:21:27;;;;;;;15.25;12.40;;;13.30;80.80;;;;;;5033508;28;20029;-67
2022/03/14 11:23:54;;;;;;;13.70;11.15;;;14.30;82.00;;;;;;5033459;28;20108;-67
2022/03/14 11:26:23;;;;;;;14.82;11.48;;;17.50;78.60;;;;;;5033524;28;20036;-67
2022/03/14 11:28:52;;;;;;;9.70;7.60;;;20.80;67.20;;;;;;5033290;28;20076;-67
2022/03/14 11:31:19;;;;;;;7.07;6.20;;;23.40;60.10;;;;;;5033337;28;20064;-67
2022/03/14 11:33:46;;;;;;;8.00;5.78;;;25.00;55.40;;;;;;5033463;28;20032;-67
2022/03/14 11:36:12;;;;;;;8.63;6.55;;;25.90;52.90;;;;;;5033069;28;20017;-67
2022/03/14 11:38:37;;;;;;;10.95;7.68;;;25.80;49.30;;;;;;5032382;28;20030;-66
2022/03/14 11:41:03;;;;;;;9.05;7.72;;;25.20;48.00;;;;;;5031642;28;20093;-67
2022/03/14 11:43:29;;;;;;;9.93;8.15;;;23.60;47.40;;;;;;5033015;28;20044;-67
2022/03/14 11:46:01;;;;;;;9.30;8.30;;;21.80;50.10;;;;;;5033312;28;20031;-67
2022/03/14 11:48:31;;;;;;;12.30;9.50;;;20.40;52.60;;;;;;5032951;28;20031;-68
2022/03/14 11:51:06;;;;;;;12.27;10.20;;;19.50;54.50;;;;;;5032307;28;20021;-67
2022/03/14 11:53:34;;;;;;;10.70;9.40;;;18.90;56.00;;;;;;5029369;28;20056;-67
2022/03/14 11:56:05;;;;;;;11.10;8.95;;;19.10;56.50;;;;;;5031510;28;20422;-66
2022/03/14 11:58:42;;;;;;;10.85;9.15;;;19.00;56.50;;;;;;5029149;28;20017;-67
2022/03/14 12:01:20;;;;;;;11.50;9.05;;;18.80;56.40;;;;;;5021900;28;20041;-67
2022/03/14 12:03:52;;;;;;;10.65;9.55;;;18.90;57.10;;;;;;5031121;28;20397;-67
2022/03/14 12:06:47;;;;;;;12.27;9.73;;;20.10;55.60;;;;;;5022800;28;20032;-67
2022/03/14 12:09:27;;;;;;;11.50;10.35;;;19.80;53.70;;;;;;5030248;28;20024;-67
2022/03/14 12:11:57;;;;;;;11.48;10.10;;;19.00;54.50;;;;;;5027787;28;20473;-67
2022/03/14 12:14:42;;;;;;;13.15;11.15;;;18.10;56.20;;;;;;5028931;28;20038;-67
2022/03/14 12:17:13;;;;;;;12.20;10.90;;;17.50;58.30;;;;;;5029001;28;20022;-67
2022/03/14 12:20:03;;;;;;;11.52;9.98;;;17.10;59.40;;;;;;5021325;28;20021;-67
2022/03/14 12:22:44;;;;;;;11.60;10.35;;;16.80;60.00;;;;;;5019769;28;20029;-68
2022/03/14 12:25:13;;;;;;;13.63;10.90;;;16.50;61.00;;;;;;5027987;28;20028;-67
2022/03/14 12:27:41;;;;;;;13.80;12.02;;;16.30;61.70;;;;;;5008899;28;20021;-67
2022/03/14 12:30:30;;;;;;;12.13;10.80;;;16.10;62.80;;;;;;5028732;28;20029;-67
2022/03/14 12:32:56;;;;;;;;;;;17.00;61.80;;;;;;5031286;28;20021;-67
2022/03/14 12:35:22;;;;;;;11.50;9.57;;;17.40;59.80;;;;;;5032215;28;20308;-67
2022/03/14 12:37:53;;;;;;;11.40;7.55;;;17.40;59.60;;;;;;5014362;28;20064;-67
2022/03/14 12:40:22;;;;;;;10.80;8.68;;;17.70;59.00;;;;;;5014256;28;20033;-67